Whitby, United Kingdom
Current Conditions -  °F | °C
As of 9:50 PM on Sunday 21 Dec 2014 (Local Time) from EGNV Reporting Station
Broken Clouds Broken Clouds  
Wind Chill: 55°   Ceiling: 2100
Heat Index: 55°   Visibility: 6mi
Dew Point: 48°   Wind: 22mph
Humidity: 77%   Direction: 220°SW
Pressure: 29.77"   Gusts: NA
Location:  54.48°N, 0.64°W
Report Text: EGNV 212150Z 22019KT 9999 FEW015 BKN021 13/09 Q1008
Loading
Personal Weather Stations






























Interactive Weather Map New forecast layout! Learn more

10-Day Weather Forecast

Advertisements
Track Severe Weather on mobile